NCAR-RAP Real-Time Weather Data

Output produced by METARs form (23 January 2018  15:35 UTC)
found at http://weather.rap.ucar.edu/surface/
 
RJFM 231200Z 26016KT 9999 FEW030 05/M02 Q1019
RJFM 231100Z 26016KT 9999 FEW030 SCT/// 05/M01 Q1018
RJFM 231000Z 26016KT 9999 FEW030 SCT/// 06/M01 Q1018
RJFM 230900Z 27018KT 9999 FEW030 07/M01 Q1017
RJFM 230800Z 27020KT 9999 FEW030 08/M00 Q1016
RJFM 230726Z 27021G31KT 9999 FEW030 09/M00 Q1015 RMK 1CU030 A3000
RJFM 230700Z 27020KT 9999 FEW030 10/00 Q1015
RJFM 230600Z 29016KT 250V310 9999 FEW030 11/01 Q1015
RJFM 230522Z 29017G27KT 9999 FEW030 12/00 Q1015 RMK 1CU030 A2997
RJFM 230500Z 27021KT 9999 FEW030 12/01 Q1015
RJFM 230410Z 28023G33KT 9999 FEW030 12/01 Q1015 RMK 1CU030 A2997
RJFM 230400Z 27026KT 9999 FEW030 12/01 Q1014
RJFM 230316Z 29019G29KT 9999 FEW030 13/01 Q1015 RMK 1CU030 A2997
RJFM 230300Z 29017KT 9999 FEW030 12/00 Q1015
RJFM 230228Z 28015G25KT 9999 FEW030 12/01 Q1015 RMK 1CU030 A2999
RJFM 230200Z 29015KT 9999 FEW030 13/03 Q1016
RJFM 230108Z 29017G29KT 9999 FEW030 12/03 Q1016 RMK 1CU030 A3000
RJFM 230100Z 29017KT 9999 FEW030 11/03 Q1016
RJFM 230000Z 27009KT 6000 FEW030 10/05 Q1015
RJFM 222300Z 28015KT 5000 BR FEW030 09/05 Q1015
RJFM 222200Z 27011KT 9999 FEW030 08/05 Q1015
RJFM 222110Z 27010KT 9999 FEW030 08/05 Q1014 RMK 1CU030 A2997
RJFM 221200Z 28006KT 9999 FEW025 06/04 Q1014
RJFM 221100Z 26009KT 9999 FEW015 SCT025 07/04 Q1014
RJFM 221000Z 26008KT 9999 FEW010 SCT025 08/05 Q1013
RJFM 220900Z VRB01KT 9999 FEW005 SCT015 BKN020 10/07 Q1012
RJFM 220800Z 05006KT 010V120 9999 FEW005 SCT015 BKN020 10/08 Q1011
RJFM 220700Z 06004KT 320V090 9999 FEW005 SCT015 BKN025 10/08 Q1010
RJFM 220600Z 33003KT 240V360 9999 FEW005 SCT010 BKN015 10/08 Q1009
RJFM 220500Z VRB02KT 9999 FEW005 SCT040 09/07 Q1009
RJFM 220400Z 35006KT 300V030 8000 -SHRA FEW006 SCT010 BKN030 08/07 Q1010
RJFM 220300Z 33006KT 290V010 7000 -SHRA FEW006 SCT010 BKN020 08/07 Q1010
RJFM 220239Z 33005KT 290V020 5000 -SHRA BR FEW006 SCT010 BKN020 08/07 Q1011 RMK 1ST006 3ST010 5CU020 A2986
RJFM 220221Z 32009KT 280V020 3000 SHRA BR FEW006 SCT010 BKN020 08/07 Q1011 RMK 1ST006 3ST010 5CU020 A2985
RJFM 220200Z 35006KT 310V040 3500 SHRA BR FEW006 SCT010 BKN020 08/07 Q1011
RJFM 220100Z 34007KT 280V360 4000 -SHRA BR FEW006 SCT010 BKN020 08/08 Q1012
RJFM 220028Z 32007KT 270V020 3500 -SHRA BR FEW006 SCT009 BKN010 08/08 Q1011 RMK 1ST006 3ST009 5ST010 A2988
RJFM 220000Z 32008KT 3000 SHRA BR FEW006 SCT007 BKN009 08/08 Q1011
RJFM 212336Z 30006KT 230V010 3000 SHRA BR FEW006 SCT007 BKN009 08/08 Q1012 RMK 1ST006 3ST007 5ST009 A2988
RJFM 212300Z 30006KT 240V360 3000 SHRA BR FEW008 BKN010 BKN015 08/07 Q1011
RJFM 212227Z 32007KT 280V350 3500 SHRA BR FEW010 BKN015 BKN020 08/07 Q1011 RMK 1ST010 5CU015 6CU020 A2988
RJFM 212200Z 29008KT 260V360 3000 SHRA BR FEW010 BKN015 BKN020 08/07 Q1012
RJFM 212110Z 28004KT 4000 -SHRA BR FEW020 SCT035 BKN045 07/07 Q1011 RMK 1CU020 3CU035 5CU045 A2987
RJFM 211200Z 36014KT 9999 FEW025 SCT050 BKN170 11/03 Q1019
RJFM 211100Z 04015KT 9999 FEW025 BKN040 BKN050 12/04 Q1019
RJFM 211000Z 04011KT 9999 FEW025 SCT030 BKN040 12/05 Q1019
RJFM 210900Z 05012KT 9999 FEW025 SCT030 BKN040 12/05 Q1018
RJFM 210800Z 05010KT 9999 FEW025 SCT030 BKN040 13/05 Q1018
RJFM 210700Z 06009KT 9999 FEW030 SCT180 13/05 Q1018
RJFM 210600Z 05008KT 9999 FEW030 13/05 Q1017
RJFM 210500Z 05007KT 020V080 9999 FEW030 13/05 Q1017
RJFM 210400Z 05008KT 9999 FEW030 13/05 Q1018